William R Fairchild International Airport Port Angeles US
ICAO: KCLM
IATA: CLM
Category: Medium
Scheduled Services: Yes

Elevation: 291 ft
TransAlt. 18000 ft.

Airport Communications:
WHIDBEY APP/DEP:118.2
ASOS:135.175
CLNC DEL:124.15
SEATTLE RDO:122.6
CTAF/UNICOM:123

KCLM Zoom In..

If you have problems with the map follow the link
https://www.worldairports.se/pages/airport.php?
ICAO=KCLM

Runways:

(A) RW 08 length 6347 ft width 150 ft
ILS 108.90 / hdg 83

(B) RW 13 length 3245 ft width 50 ft
---- / hdg 126

(C) RW 26 length 6347 ft width 150 ft
---- / hdg 263

(D) RW 31 length 3245 ft width 50 ft
---- / hdg 306

Location; KCLM
Day. 13 / Time. 12.53 Zulu
* Altimeter: 30.07
* Temperature: 04° c. 39.2°f.
* Wind from: 230° Speed 04 kn.
Dewpoint: 03° c.
Visibility: 10 Statute Miles.
Clouds: Broken 5500 ft.

KCLM 131253Z AUTO 23004KT 10SM BKN055 04/03 A3007 RMK AO2 SLP184 T00440033


Wind From 230°
Speed 04 kn.

 
 
jpsmedia worldairports.se 2019   terms of use